createdAt,value
2024-04-15T00:01:42.222Z,1.92
2024-04-15T00:06:44.866Z,1.70
2024-04-15T00:11:49.254Z,1.95
2024-04-15T00:16:51.979Z,1.70
2024-04-15T00:21:54.715Z,1.73
2024-04-15T00:26:58.527Z,1.88
2024-04-15T00:32:01.157Z,1.77
2024-04-15T00:37:03.766Z,2.10
2024-04-15T00:42:07.325Z,1.80
2024-04-15T00:47:11.143Z,1.90
2024-04-15T00:52:14.148Z,1.77
2024-04-15T00:57:16.785Z,1.60
2024-04-15T01:02:19.380Z,1.80
2024-04-15T01:07:22.763Z,1.60
2024-04-15T01:12:25.310Z,2.03
2024-04-15T01:17:27.916Z,1.95
2024-04-15T01:23:00.205Z,1.60
2024-04-15T01:28:04.105Z,2.13
2024-04-15T01:33:07.288Z,1.70
2024-04-15T01:38:09.920Z,1.88
2024-04-15T01:43:12.689Z,1.75
2024-04-15T01:48:15.418Z,1.80
2024-04-15T01:53:18.029Z,2.10
2024-04-15T01:58:20.664Z,1.90
2024-04-15T02:03:23.250Z,1.80
2024-04-15T02:08:25.851Z,2.03
2024-04-15T02:13:28.446Z,2.10
2024-04-15T02:18:31.186Z,2.33
2024-04-15T02:23:33.815Z,2.30
2024-04-15T02:28:36.665Z,2.08
2024-04-15T02:33:39.206Z,2.53
2024-04-15T02:38:42.193Z,2.55
2024-04-15T02:43:44.983Z,2.38
2024-04-15T02:48:47.592Z,1.92
2024-04-15T02:53:50.783Z,2.10
2024-04-15T02:58:53.364Z,1.90
2024-04-15T03:03:56.165Z,1.98
2024-04-15T03:08:58.816Z,1.95
2024-04-15T03:14:01.401Z,2.15
2024-04-15T03:19:04.062Z,2.20
2024-04-15T03:24:06.707Z,2.03
2024-04-15T03:29:09.249Z,1.67
2024-04-15T03:34:11.840Z,1.75
2024-04-15T03:39:14.400Z,1.90
2024-04-15T03:44:16.941Z,2.40
2024-04-15T03:49:19.502Z,2.10
2024-04-15T03:54:22.045Z,2.35
2024-04-15T03:59:24.604Z,2.17
2024-04-15T04:04:28.316Z,1.83
2024-04-15T04:09:30.994Z,2.17
2024-04-15T04:14:34.128Z,2.20
2024-04-15T04:19:37.858Z,2.17
2024-04-15T04:24:40.400Z,2.50
2024-04-15T04:29:43.025Z,2.30
2024-04-15T04:34:45.574Z,2.33
2024-04-15T04:39:48.126Z,2.35
2024-04-15T04:44:58.356Z,2.10
2024-04-15T04:50:01.952Z,2.47
2024-04-15T04:55:04.660Z,2.47
2024-04-15T05:00:07.938Z,2.88
2024-04-15T05:05:10.543Z,2.30
2024-04-15T05:10:13.337Z,2.53
2024-04-15T05:15:15.916Z,2.83
2024-04-15T05:20:18.472Z,2.60
2024-04-15T05:25:21.120Z,2.35
2024-04-15T05:30:23.739Z,2.17
2024-04-15T05:35:26.264Z,2.22
2024-04-15T05:40:28.884Z,2.20
2024-04-15T05:45:31.553Z,2.22
2024-04-15T05:50:34.565Z,2.50
2024-04-15T05:55:37.589Z,1.92
2024-04-15T06:00:40.173Z,2.20
2024-04-15T06:05:42.739Z,2.20
2024-04-15T06:10:49.484Z,2.40
2024-04-15T06:15:52.945Z,2.47
2024-04-15T06:20:55.531Z,2.33
2024-04-15T06:25:58.154Z,2.42
2024-04-15T06:31:01.300Z,2.03
2024-04-15T06:36:04.028Z,1.90
2024-04-15T06:41:06.575Z,1.70
2024-04-15T06:46:09.329Z,2.03
2024-04-15T06:51:12.210Z,1.60
2024-04-15T06:56:15.276Z,1.48
2024-04-15T07:01:18.079Z,1.52
2024-04-15T07:06:20.721Z,1.42
2024-04-15T07:11:23.316Z,1.30
2024-04-15T07:16:25.985Z,1.90
2024-04-15T07:21:28.593Z,1.42
2024-04-15T07:26:31.127Z,1.20
2024-04-15T07:31:33.821Z,0.95
2024-04-15T07:36:36.460Z,1.00
2024-04-15T07:41:39.090Z,1.02
2024-04-15T07:46:41.736Z,0.80
2024-04-15T07:51:44.365Z,0.80
2024-04-15T07:56:47.064Z,1.10
2024-04-15T08:01:50.314Z,1.25
2024-04-15T08:07:03.754Z,1.05
2024-04-15T08:17:16.027Z,1.02
2024-04-15T08:22:18.634Z,1.70
2024-04-15T08:27:22.947Z,1.27
2024-04-15T08:32:25.592Z,1.10
2024-04-15T08:37:28.240Z,0.90
2024-04-15T08:42:55.325Z,0.70
2024-04-15T08:47:59.490Z,0.80
2024-04-15T08:53:02.114Z,0.80
2024-04-15T08:58:05.611Z,0.70
2024-04-15T09:03:08.839Z,0.88
2024-04-15T09:08:13.790Z,0.80
2024-04-15T09:13:18.010Z,0.90
2024-04-15T09:18:20.757Z,0.98
2024-04-15T09:23:26.033Z,0.75
2024-04-15T09:28:29.247Z,0.57
2024-04-15T09:33:32.648Z,0.80
2024-04-15T09:38:40.602Z,0.95
2024-04-15T09:43:47.851Z,0.98
2024-04-15T09:48:50.810Z,1.40
2024-04-15T09:53:54.952Z,1.02
2024-04-15T09:58:58.551Z,0.70
2024-04-15T10:04:06.023Z,0.80
2024-04-15T10:09:10.913Z,0.80
2024-04-15T10:14:14.948Z,0.75
2024-04-15T10:19:25.428Z,0.80
2024-04-15T10:24:28.568Z,0.75
2024-04-15T10:29:34.270Z,0.73
2024-04-15T10:34:50.530Z,0.70
2024-04-15T10:39:53.385Z,0.80
2024-04-15T10:44:56.376Z,1.50
2024-04-15T10:50:00.554Z,0.60
2024-04-15T10:55:03.202Z,0.40
2024-04-15T11:00:10.142Z,0.85
2024-04-15T11:05:13.579Z,0.70
2024-04-15T11:10:16.767Z,0.68
2024-04-15T11:15:20.180Z,0.80
2024-04-15T11:20:25.086Z,0.60
2024-04-15T11:25:31.215Z,0.45
2024-04-15T11:30:35.892Z,0.65
2024-04-15T11:35:51.574Z,0.88
2024-04-15T11:40:54.600Z,0.75
2024-04-15T11:45:58.003Z,0.57
2024-04-15T11:51:00.673Z,0.70
2024-04-15T11:56:04.719Z,0.70
2024-04-15T12:01:07.862Z,0.68
2024-04-15T12:06:12.363Z,0.68
2024-04-15T12:11:15.701Z,0.52
2024-04-15T12:16:18.362Z,0.40
2024-04-15T12:21:21.059Z,0.60
2024-04-15T12:26:26.581Z,0.73
2024-04-15T12:31:29.215Z,0.60
2024-04-15T12:36:31.787Z,0.55
2024-04-15T12:41:34.416Z,0.60
2024-04-15T12:46:37.226Z,0.63
2024-04-15T12:51:39.799Z,0.45
2024-04-15T12:56:42.365Z,0.88
2024-04-15T13:01:54.932Z,0.65
2024-04-15T13:12:11.534Z,1.13
2024-04-15T13:17:14.589Z,0.63
2024-04-15T13:22:17.266Z,0.57
2024-04-15T13:27:20.298Z,0.60
2024-04-15T13:32:22.851Z,0.82
2024-04-15T13:37:26.099Z,0.65
2024-04-15T13:42:29.930Z,0.80
2024-04-15T13:47:32.817Z,0.60
2024-04-15T13:52:36.227Z,0.57
2024-04-15T13:57:38.830Z,0.85
2024-04-15T14:02:41.739Z,0.65
2024-04-15T14:07:47.990Z,1.15
2024-04-15T14:12:51.368Z,0.82
2024-04-15T14:17:56.740Z,0.57
2024-04-15T14:22:59.647Z,0.60
2024-04-15T14:28:02.249Z,0.75
2024-04-15T14:33:05.160Z,0.98
2024-04-15T14:38:07.824Z,2.28
2024-04-15T14:43:10.403Z,0.50
2024-04-15T14:48:13.270Z,0.63
2024-04-15T14:53:15.943Z,0.63
2024-04-15T14:58:18.531Z,0.88
2024-04-15T15:03:21.165Z,0.80
2024-04-15T15:08:24.183Z,1.13
2024-04-15T15:13:26.802Z,0.77
2024-04-15T15:18:29.733Z,0.73
2024-04-15T15:23:32.639Z,0.77
2024-04-15T15:28:35.501Z,0.60
2024-04-15T15:33:38.101Z,1.52
2024-04-15T15:38:44.488Z,0.85
2024-04-15T15:43:48.625Z,1.08
2024-04-15T15:48:51.252Z,0.63
2024-04-15T15:53:53.850Z,0.80
2024-04-15T15:58:56.638Z,0.60
2024-04-15T16:03:59.839Z,0.63
2024-04-15T16:09:02.945Z,1.33
2024-04-15T16:14:06.988Z,0.52
2024-04-15T16:19:10.680Z,0.65
2024-04-15T16:24:13.628Z,0.68
2024-04-15T16:29:16.450Z,1.05
2024-04-15T16:34:19.042Z,0.73
2024-04-15T16:39:21.633Z,0.30
2024-04-15T16:44:24.180Z,0.40
2024-04-15T16:49:33.224Z,0.50
2024-04-15T16:54:37.093Z,0.30
2024-04-15T16:59:39.711Z,0.20
2024-04-15T17:04:42.413Z,0.20
2024-04-15T17:09:45.977Z,0.30
2024-04-15T17:14:49.317Z,0.22
2024-04-15T17:19:52.498Z,0.10
2024-04-15T17:24:56.683Z,0.50
2024-04-15T17:29:59.637Z,0.40
2024-04-15T17:35:02.400Z,0.40
2024-04-15T17:40:05.595Z,0.40
2024-04-15T17:45:08.324Z,0.40
2024-04-15T17:50:10.933Z,0.30
2024-04-15T17:55:19.802Z,0.70
2024-04-15T18:00:22.604Z,0.52
2024-04-15T18:05:25.377Z,0.43
2024-04-15T18:10:27.995Z,0.60
2024-04-15T18:15:30.612Z,0.47
2024-04-15T18:20:33.625Z,0.60
2024-04-15T18:25:39.927Z,0.50
2024-04-15T18:30:43.587Z,0.28
2024-04-15T18:35:46.245Z,0.50
2024-04-15T18:40:49.998Z,0.60
2024-04-15T18:45:53.439Z,0.40
2024-04-15T18:50:56.211Z,0.40
2024-04-15T18:55:59.042Z,0.57
2024-04-15T19:01:02.860Z,0.82
2024-04-15T19:06:05.728Z,0.50
2024-04-15T19:11:08.466Z,0.65
2024-04-15T19:16:11.232Z,0.50
2024-04-15T19:21:16.088Z,0.40
2024-04-15T19:26:18.693Z,0.40
2024-04-15T19:31:30.005Z,0.65
2024-04-15T19:36:37.530Z,0.43
2024-04-15T19:41:41.122Z,0.40
2024-04-15T19:46:45.617Z,0.52
2024-04-15T19:51:48.953Z,0.40
2024-04-15T19:56:52.051Z,0.50
2024-04-15T20:01:58.320Z,0.40
2024-04-15T20:07:02.392Z,0.50
2024-04-15T20:12:06.412Z,0.60
2024-04-15T20:17:11.534Z,0.30
2024-04-15T20:22:15.792Z,0.65
2024-04-15T20:27:18.777Z,0.60
2024-04-15T20:32:22.627Z,0.65
2024-04-15T20:37:26.955Z,0.75
2024-04-15T20:42:30.077Z,0.82
2024-04-15T20:47:34.028Z,0.70
2024-04-15T20:52:38.187Z,0.57
2024-04-15T20:57:41.205Z,0.60
2024-04-15T21:02:43.975Z,0.45
2024-04-15T21:07:47.803Z,0.68
2024-04-15T21:12:50.910Z,0.57
2024-04-15T21:17:54.423Z,0.60
2024-04-15T21:22:57.104Z,0.68
2024-04-15T21:27:59.708Z,0.70
2024-04-15T21:33:03.351Z,0.70
2024-04-15T21:38:06.092Z,0.40
2024-04-15T21:43:08.668Z,0.68
2024-04-15T21:48:11.248Z,0.55
2024-04-15T21:53:13.831Z,0.80
2024-04-15T21:58:16.525Z,0.70
2024-04-15T22:03:19.101Z,0.60
2024-04-15T22:08:21.662Z,0.57
2024-04-15T22:13:24.320Z,0.70
2024-04-15T22:18:26.971Z,0.70
2024-04-15T22:23:30.106Z,0.63
2024-04-15T22:28:32.752Z,0.52
2024-04-15T22:33:35.487Z,0.75
2024-04-15T22:38:38.220Z,0.70
2024-04-15T22:43:40.807Z,0.85
2024-04-15T22:48:43.393Z,0.55
2024-04-15T22:53:45.952Z,1.38
2024-04-15T22:58:48.561Z,0.70
2024-04-15T23:03:51.151Z,1.20
2024-04-15T23:08:55.871Z,0.93
2024-04-15T23:13:58.397Z,0.80
2024-04-15T23:19:00.973Z,0.80
2024-04-15T23:24:03.608Z,0.40
2024-04-15T23:29:06.269Z,0.70
2024-04-15T23:34:08.877Z,0.60
2024-04-15T23:39:13.210Z,1.08
2024-04-15T23:44:15.804Z,0.70
2024-04-15T23:54:58.136Z,2.42
